Wolf 59 — CGBP — position and weather

sailwx.info

Track history (hours):
 
Tides and Currents Weather Stations Pressure Air Temp Water Temp Dewpoint Dewpoint Depression Visibility Wind Speed Wind Dir Waves Ship Positions

Wolf 59

Last reported at 2017-Mar-23 20:33 UTC. Time now 2017-Mar-24 06:15 UTC.
Position N 48°26' W 123°26'.

Length 33 m; draft 2.6 m.

Type: Military. MMSI: 316011515.

Date/timePositionNaut miles runAvg speedWind from/ knotsBaromVisibWave heightAir tempDewpointWater temp
2017-Mar-23 20:33N 48°26' W 123°26'3 2.6
2017-Mar-23 19:33N 48°24' W 123°24'6 6.4
2017-Mar-23 18:33N 48°27' W 123°15'6 6.3
2017-Mar-23 17:34N 48°23' W 123°23'4 4.0
2017-Mar-23 16:31N 48°26' W 123°26'0 0.0
2017-Mar-22 20:33N 48°26' W 123°26'2 1.6
2017-Mar-22 19:33N 48°24' W 123°25'6 5.5
2017-Mar-22 18:34N 48°25' W 123°17'2 2.0
2017-Mar-22 17:33N 48°27' W 123°15'6 6.3
2017-Mar-22 16:33N 48°22' W 123°22'5 4.9
2017-Mar-22 15:33N 48°26' W 123°26'0 0.0
2017-Mar-21 22:12N 48°26' W 123°26'0 0.4
2017-Mar-21 21:31N 48°26' W 123°26'1 1.4
2017-Mar-21 20:33N 48°25' W 123°27'4 3.6
2017-Mar-21 19:22N 48°21' W 123°29'2 2.9
2017-Mar-21 18:33N 48°23' W 123°28'1 1.2
2017-Mar-21 17:33N 48°22' W 123°29'4 0.3
2017-Mar-21 05:26N 48°26' W 123°26'0 0.0
2017-Mar-21 04:32N 48°26' W 123°26'0 0.0
2017-Mar-20 22:33N 48°26' W 123°26'0 0.0
2017-Mar-20 21:34N 48°26' W 123°26'3 3.3
2017-Mar-20 20:33N 48°23' W 123°28'0 0.4
2017-Mar-20 19:33N 48°23' W 123°28'2 2.2
2017-Mar-20 18:33N 48°25' W 123°27'1 1.1
2017-Mar-20 17:31N 48°26' W 123°27'1 0.9
2017-Mar-20 16:27N 48°26' W 123°26'0 0.0
2017-Mar-19 22:33N 48°26' W 123°26'1 0.8
2017-Mar-19 21:33N 48°25' W 123°27'6 6.3
2017-Mar-19 20:34N 48°24' W 123°18'3 2.6
2017-Mar-19 19:31N 48°26' W 123°17'1 0.5
2017-Mar-19 18:34N 48°26' W 123°17'1 1.0
2017-Mar-19 17:33N 48°25' W 123°17'6 6.1
2017-Mar-19 16:33N 48°23' W 123°25'3 2.7
2017-Mar-19 15:21N 48°26' W 123°26'0 0.0
2017-Mar-19 12:03N 48°26' W 123°26'0 0.0
2017-Mar-19 10:27N 48°26' W 123°26'0 0.0
2017-Mar-19 03:15N 48°26' W 123°26'0 0.0
2017-Mar-19 02:27N 48°26' W 123°26'0 0.0
2017-Mar-19 01:33N 48°26' W 123°26'0 0.0
2017-Mar-19 00:33N 48°26' W 123°26'0 0.0
2017-Mar-18 23:33N 48°26' W 123°26'0 0.0
2017-Mar-18 22:12N 48°26' W 123°26'0 0.4
2017-Mar-18 21:33N 48°26' W 123°26'0 0.1
2017-Mar-18 20:33N 48°26' W 123°26'6 5.5
2017-Mar-18 19:33N 48°21' W 123°29'1 0.7
2017-Mar-18 18:34N 48°21' W 123°30'1 1.3
2017-Mar-18 17:33N 48°21' W 123°28'4 4.1
2017-Mar-18 16:28N 48°25' W 123°27'1 1.2
2017-Mar-18 15:29N 48°26' W 123°26'0 0.0
2017-Mar-18 14:29N 48°26' W 123°26'0 0.0
2017-Mar-18 13:17N 48°26' W 123°26'0 0.0
2017-Mar-18 12:29N 48°26' W 123°26'0 0.0
2017-Mar-18 11:29N 48°26' W 123°26'0 0.0
2017-Mar-18 10:29N 48°26' W 123°26'0 0.0
2017-Mar-18 09:32N 48°26' W 123°26'0 0.0
2017-Mar-18 08:23N 48°26' W 123°26'0 0.0
2017-Mar-18 07:29N 48°26' W 123°26'0 0.0
2017-Mar-18 06:23N 48°26' W 123°26'0 0.0
2017-Mar-18 05:29N 48°26' W 123°26'0 0.0
2017-Mar-18 04:29N 48°26' W 123°26'0 0.0
2017-Mar-18 03:29N 48°26' W 123°26'0 0.0
2017-Mar-18 02:29N 48°26' W 123°26'0 0.0
2017-Mar-18 01:29N 48°26' W 123°26'0 0.0
2017-Mar-18 00:29N 48°26' W 123°26'0 0.0
2017-Mar-17 23:23N 48°26' W 123°26'0 0.0
2017-Mar-17 22:26N 48°26' W 123°26'0 0.0
2017-Mar-17 21:32N 48°26' W 123°26'0 0.0
2017-Mar-17 12:17N 48°26' W 123°26'0 0.0
2017-Mar-17 11:11N 48°26' W 123°26'0 0.0
2017-Mar-17 10:29N 48°26' W 123°26'0 0.0
2017-Mar-17 09:23N 48°26' W 123°26'0 0.0
2017-Mar-17 08:17N 48°26' W 123°26'0 0.0
2017-Mar-17 07:29N 48°26' W 123°26'0 0.0
2017-Mar-17 06:29N 48°26' W 123°26'0 0.0
2017-Mar-17 05:29N 48°26' W 123°26'0 0.0
2017-Mar-17 04:29N 48°26' W 123°26'0 0.0
2017-Mar-17 03:29N 48°26' W 123°26'0 0.0
2017-Mar-17 02:29N 48°26' W 123°26'0 0.0
2017-Mar-17 01:23N 48°26' W 123°26'0 0.0
2017-Mar-17 00:29N 48°26' W 123°26'0 0.0
2017-Mar-16 23:29N 48°26' W 123°26'0 0.2
2017-Mar-16 22:33N 48°26' W 123°26'0 0.1
2017-Mar-16 21:33N 48°26' W 123°26'0 0.2
2017-Mar-16 20:33N 48°26' W 123°26'0 0.1
2017-Mar-16 19:33N 48°26' W 123°26'5 5.1
2017-Mar-16 18:33N 48°22' W 123°30'3 2.5
2017-Mar-16 17:33N 48°24' W 123°28'4 4.1
2017-Mar-16 16:33N 48°20' W 123°31'7 6.3
2017-Mar-16 15:29N 48°26' W 123°26'0 0.0
2017-Mar-16 08:18N 48°26' W 123°26'0 0.0
2017-Mar-16 07:30N 48°26' W 123°26'0 0.0
2017-Mar-16 06:30N 48°26' W 123°26'0 0.0
2017-Mar-16 05:30N 48°26' W 123°26'0 0.0
2017-Mar-16 01:12N 48°26' W 123°26'0 0.0
2017-Mar-16 00:30N 48°26' W 123°26'0 0.0
2017-Mar-15 23:18N 48°26' W 123°26'0 0.5
2017-Mar-15 22:33N 48°26' W 123°26'3 2.6
2017-Mar-15 21:33N 48°24' W 123°24'5 4.5
2017-Mar-15 20:34N 48°25' W 123°17'1 1.3
2017-Mar-15 19:33N 48°27' W 123°17'2 2.4
2017-Mar-15 18:34N 48°24' W 123°17'0 0.3
2017-Mar-15 17:33N 48°24' W 123°17'2 2.4
2017-Mar-15 16:33N 48°22' W 123°15'9 8.6
2017-Mar-15 15:33N 48°24' W 123°27'2 0.3
2017-Mar-15 10:21N 48°26' W 123°26'0 0.0
2017-Mar-15 09:09N 48°26' W 123°26'0 0.0
2017-Mar-15 07:33N 48°26' W 123°26'0 0.0
2017-Mar-15 03:03N 48°26' W 123°26'0 0.0
2017-Mar-14 23:24N 48°26' W 123°26'0 0.3
2017-Mar-14 22:33N 48°26' W 123°26'0 0.1
2017-Mar-14 21:34N 48°26' W 123°26'3 3.2
2017-Mar-14 20:33N 48°24' W 123°23'5 5.4
2017-Mar-14 19:33N 48°20' W 123°18'2 2.0
2017-Mar-14 18:33N 48°18' W 123°20'2 2.4
2017-Mar-14 17:33N 48°20' W 123°23'6 4.6
2017-Mar-14 16:13N 48°26' W 123°26'0 0.0
2017-Mar-14 14:31N 48°26' W 123°26'0 0.0
2017-Mar-14 13:31N 48°26' W 123°26'0 0.0
2017-Mar-14 12:31N 48°26' W 123°26'0 0.0
2017-Mar-14 11:31N 48°26' W 123°26'0 0.0
2017-Mar-14 06:07N 48°26' W 123°26'0 0.0
2017-Mar-13 23:34N 48°26' W 123°26'2 1.6
2017-Mar-13 22:32N 48°24' W 123°27'2 2.1
2017-Mar-13 21:31N 48°22' W 123°28'  
Track history (hours):
 
Tides and Currents Weather Stations Pressure Air Temp Water Temp Dewpoint Dewpoint Depression Visibility Wind Speed Wind Dir Waves Ship Positions

Wolf 59

Last reported at 2017-Mar-23 20:33 UTC. Time now 2017-Mar-24 06:15 UTC.
Position N 48°26' W 123°26'.

Length 33 m; draft 2.6 m.

Type: Military. MMSI: 316011515.

Date/timePositionNaut miles runAvg speedWind from/ knotsBaromVisibWave heightAir tempDewpointWater temp
2017-Mar-23 20:33N 48°26' W 123°26'3 2.6
2017-Mar-23 19:33N 48°24' W 123°24'6 6.4
2017-Mar-23 18:33N 48°27' W 123°15'6 6.3
2017-Mar-23 17:34N 48°23' W 123°23'4 4.0
2017-Mar-23 16:31N 48°26' W 123°26'0 0.0
2017-Mar-22 20:33N 48°26' W 123°26'2 1.6
2017-Mar-22 19:33N 48°24' W 123°25'6 5.5
2017-Mar-22 18:34N 48°25' W 123°17'2 2.0
2017-Mar-22 17:33N 48°27' W 123°15'6 6.3
2017-Mar-22 16:33N 48°22' W 123°22'5 4.9
2017-Mar-22 15:33N 48°26' W 123°26'0 0.0
2017-Mar-21 22:12N 48°26' W 123°26'0 0.4
2017-Mar-21 21:31N 48°26' W 123°26'1 1.4
2017-Mar-21 20:33N 48°25' W 123°27'4 3.6
2017-Mar-21 19:22N 48°21' W 123°29'2 2.9
2017-Mar-21 18:33N 48°23' W 123°28'1 1.2
2017-Mar-21 17:33N 48°22' W 123°29'4 0.3
2017-Mar-21 05:26N 48°26' W 123°26'0 0.0
2017-Mar-21 04:32N 48°26' W 123°26'0 0.0
2017-Mar-20 22:33N 48°26' W 123°26'0 0.0
2017-Mar-20 21:34N 48°26' W 123°26'3 3.3
2017-Mar-20 20:33N 48°23' W 123°28'0 0.4
2017-Mar-20 19:33N 48°23' W 123°28'2 2.2
2017-Mar-20 18:33N 48°25' W 123°27'1 1.1
2017-Mar-20 17:31N 48°26' W 123°27'1 0.9
2017-Mar-20 16:27N 48°26' W 123°26'0 0.0
2017-Mar-19 22:33N 48°26' W 123°26'1 0.8
2017-Mar-19 21:33N 48°25' W 123°27'6 6.3
2017-Mar-19 20:34N 48°24' W 123°18'3 2.6
2017-Mar-19 19:31N 48°26' W 123°17'1 0.5
2017-Mar-19 18:34N 48°26' W 123°17'1 1.0
2017-Mar-19 17:33N 48°25' W 123°17'6 6.1
2017-Mar-19 16:33N 48°23' W 123°25'3 2.7
2017-Mar-19 15:21N 48°26' W 123°26'0 0.0
2017-Mar-19 12:03N 48°26' W 123°26'0 0.0
2017-Mar-19 10:27N 48°26' W 123°26'0 0.0
2017-Mar-19 03:15N 48°26' W 123°26'0 0.0
2017-Mar-19 02:27N 48°26' W 123°26'0 0.0
2017-Mar-19 01:33N 48°26' W 123°26'0 0.0
2017-Mar-19 00:33N 48°26' W 123°26'0 0.0
2017-Mar-18 23:33N 48°26' W 123°26'0 0.0
2017-Mar-18 22:12N 48°26' W 123°26'0 0.4
2017-Mar-18 21:33N 48°26' W 123°26'0 0.1
2017-Mar-18 20:33N 48°26' W 123°26'6 5.5
2017-Mar-18 19:33N 48°21' W 123°29'1 0.7
2017-Mar-18 18:34N 48°21' W 123°30'1 1.3
2017-Mar-18 17:33N 48°21' W 123°28'4 4.1
2017-Mar-18 16:28N 48°25' W 123°27'1 1.2
2017-Mar-18 15:29N 48°26' W 123°26'0 0.0
2017-Mar-18 14:29N 48°26' W 123°26'0 0.0
2017-Mar-18 13:17N 48°26' W 123°26'0 0.0
2017-Mar-18 12:29N 48°26' W 123°26'0 0.0
2017-Mar-18 11:29N 48°26' W 123°26'0 0.0
2017-Mar-18 10:29N 48°26' W 123°26'0 0.0
2017-Mar-18 09:32N 48°26' W 123°26'0 0.0
2017-Mar-18 08:23N 48°26' W 123°26'0 0.0
2017-Mar-18 07:29N 48°26' W 123°26'0 0.0
2017-Mar-18 06:23N 48°26' W 123°26'0 0.0
2017-Mar-18 05:29N 48°26' W 123°26'0 0.0
2017-Mar-18 04:29N 48°26' W 123°26'0 0.0
2017-Mar-18 03:29N 48°26' W 123°26'0 0.0
2017-Mar-18 02:29N 48°26' W 123°26'0 0.0
2017-Mar-18 01:29N 48°26' W 123°26'0 0.0
2017-Mar-18 00:29N 48°26' W 123°26'0 0.0
2017-Mar-17 23:23N 48°26' W 123°26'0 0.0
2017-Mar-17 22:26N 48°26' W 123°26'0 0.0
2017-Mar-17 21:32N 48°26' W 123°26'0 0.0
2017-Mar-17 12:17N 48°26' W 123°26'0 0.0
2017-Mar-17 11:11N 48°26' W 123°26'0 0.0
2017-Mar-17 10:29N 48°26' W 123°26'0 0.0
2017-Mar-17 09:23N 48°26' W 123°26'0 0.0
2017-Mar-17 08:17N 48°26' W 123°26'0 0.0
2017-Mar-17 07:29N 48°26' W 123°26'0 0.0
2017-Mar-17 06:29N 48°26' W 123°26'0 0.0
2017-Mar-17 05:29N 48°26' W 123°26'0 0.0
2017-Mar-17 04:29N 48°26' W 123°26'0 0.0
2017-Mar-17 03:29N 48°26' W 123°26'0 0.0
2017-Mar-17 02:29N 48°26' W 123°26'0 0.0
2017-Mar-17 01:23N 48°26' W 123°26'0 0.0
2017-Mar-17 00:29N 48°26' W 123°26'0 0.0
2017-Mar-16 23:29N 48°26' W 123°26'0 0.2
2017-Mar-16 22:33N 48°26' W 123°26'0 0.1
2017-Mar-16 21:33N 48°26' W 123°26'0 0.2
2017-Mar-16 20:33N 48°26' W 123°26'0 0.1
2017-Mar-16 19:33N 48°26' W 123°26'5 5.1
2017-Mar-16 18:33N 48°22' W 123°30'3 2.5
2017-Mar-16 17:33N 48°24' W 123°28'4 4.1
2017-Mar-16 16:33N 48°20' W 123°31'7 6.3
2017-Mar-16 15:29N 48°26' W 123°26'0 0.0
2017-Mar-16 08:18N 48°26' W 123°26'0 0.0
2017-Mar-16 07:30N 48°26' W 123°26'0 0.0
2017-Mar-16 06:30N 48°26' W 123°26'0 0.0
2017-Mar-16 05:30N 48°26' W 123°26'0 0.0
2017-Mar-16 01:12N 48°26' W 123°26'0 0.0
2017-Mar-16 00:30N 48°26' W 123°26'0 0.0
2017-Mar-15 23:18N 48°26' W 123°26'0 0.5
2017-Mar-15 22:33N 48°26' W 123°26'3 2.6
2017-Mar-15 21:33N 48°24' W 123°24'5 4.5
2017-Mar-15 20:34N 48°25' W 123°17'1 1.3
2017-Mar-15 19:33N 48°27' W 123°17'2 2.4
2017-Mar-15 18:34N 48°24' W 123°17'0 0.3
2017-Mar-15 17:33N 48°24' W 123°17'2 2.4
2017-Mar-15 16:33N 48°22' W 123°15'9 8.6
2017-Mar-15 15:33N 48°24' W 123°27'2 0.3
2017-Mar-15 10:21N 48°26' W 123°26'0 0.0
2017-Mar-15 09:09N 48°26' W 123°26'0 0.0
2017-Mar-15 07:33N 48°26' W 123°26'0 0.0
2017-Mar-15 03:03N 48°26' W 123°26'0 0.0
2017-Mar-14 23:24N 48°26' W 123°26'0 0.3
2017-Mar-14 22:33N 48°26' W 123°26'0 0.1
2017-Mar-14 21:34N 48°26' W 123°26'3 3.2
2017-Mar-14 20:33N 48°24' W 123°23'5 5.4
2017-Mar-14 19:33N 48°20' W 123°18'2 2.0
2017-Mar-14 18:33N 48°18' W 123°20'2 2.4
2017-Mar-14 17:33N 48°20' W 123°23'6 4.6
2017-Mar-14 16:13N 48°26' W 123°26'0 0.0
2017-Mar-14 14:31N 48°26' W 123°26'0 0.0
2017-Mar-14 13:31N 48°26' W 123°26'0 0.0
2017-Mar-14 12:31N 48°26' W 123°26'0 0.0
2017-Mar-14 11:31N 48°26' W 123°26'0 0.0
2017-Mar-14 06:07N 48°26' W 123°26'0 0.0
2017-Mar-13 23:34N 48°26' W 123°26'2 1.6
2017-Mar-13 22:32N 48°24' W 123°27'2 2.1
2017-Mar-13 21:31N 48°22' W 123°28'  

Dump ship's entire track history